Azeri Gas — 9HA2373 — position and weather

sailwx.info

Track history (hours):
 
Tides and Currents Weather Stations Pressure Air Temp Water Temp Dewpoint Dewpoint Depression Visibility Wind Speed Wind Dir Waves Ship Positions

Azeri Gas

Last reported at 2018-May-01 03:39 UTC. Time now 2018-May-20 17:25 UTC.
Position S 30°29' E 031°09'.
Warning: this ship's position is 19 days out of date.

Length 119 m; draft 5.1 m.

Type: Tanker. MMSI: 248454000.

Date/timePositionNaut miles runAvg speedWind from/ knotsBaromVisibWave heightAir tempDewpointWater temp
2018-May-01 03:39S 30°29' E 031°09'213.5
2018-May-01 03:29S 30°27' E 031°11'713.6
2018-May-01 03:00S 30°22' E 031°16'713.1
2018-May-01 02:30S 30°17' E 031°21'713.1
2018-May-01 02:00S 30°12' E 031°26'713.1
2018-May-01 01:30S 30°07' E 031°31'613.0
2018-May-01 01:00S 30°03' E 031°36'612.9
2018-May-01 00:30S 29°58' E 031°41'612.5
2018-May-01 00:00S 29°53' E 031°46'712.1
2018-Apr-30 23:25S 29°47' E 031°51'  
2018-Apr-21 18:37S 29°45' E 031°55'111.3
2018-Apr-21 18:30S 29°46' E 031°54'611.3
2018-Apr-21 17:58S 29°50' E 031°49'511.4
2018-Apr-21 17:30S 29°54' E 031°45'611.4
2018-Apr-21 17:00S 29°59' E 031°41'611.3
2018-Apr-21 16:30S 30°03' E 031°36'611.4
2018-Apr-21 16:00S 30°07' E 031°32'611.2
2018-Apr-21 15:30S 30°11' E 031°28'511.1
2018-Apr-21 15:00S 30°16' E 031°24'611.0
2018-Apr-21 14:30S 30°20' E 031°20'  
Track history (hours):
 
Tides and Currents Weather Stations Pressure Air Temp Water Temp Dewpoint Dewpoint Depression Visibility Wind Speed Wind Dir Waves Ship Positions

Azeri Gas

Last reported at 2018-May-01 03:39 UTC. Time now 2018-May-20 17:25 UTC.
Position S 30°29' E 031°09'.
Warning: this ship's position is 19 days out of date.

Length 119 m; draft 5.1 m.

Type: Tanker. MMSI: 248454000.

Date/timePositionNaut miles runAvg speedWind from/ knotsBaromVisibWave heightAir tempDewpointWater temp
2018-May-01 03:39S 30°29' E 031°09'213.5
2018-May-01 03:29S 30°27' E 031°11'713.6
2018-May-01 03:00S 30°22' E 031°16'713.1
2018-May-01 02:30S 30°17' E 031°21'713.1
2018-May-01 02:00S 30°12' E 031°26'713.1
2018-May-01 01:30S 30°07' E 031°31'613.0
2018-May-01 01:00S 30°03' E 031°36'612.9
2018-May-01 00:30S 29°58' E 031°41'612.5
2018-May-01 00:00S 29°53' E 031°46'712.1
2018-Apr-30 23:25S 29°47' E 031°51'  
2018-Apr-21 18:37S 29°45' E 031°55'111.3
2018-Apr-21 18:30S 29°46' E 031°54'611.3
2018-Apr-21 17:58S 29°50' E 031°49'511.4
2018-Apr-21 17:30S 29°54' E 031°45'611.4
2018-Apr-21 17:00S 29°59' E 031°41'611.3
2018-Apr-21 16:30S 30°03' E 031°36'611.4
2018-Apr-21 16:00S 30°07' E 031°32'611.2
2018-Apr-21 15:30S 30°11' E 031°28'511.1
2018-Apr-21 15:00S 30°16' E 031°24'611.0
2018-Apr-21 14:30S 30°20' E 031°20'  

Dump ship's entire track history